Time;durP1;ratioP1;P1;durP2;ratioP2;P2;SDS_P1;SDS_P2;PMS_P1;PMS_P2;Temp;Humidity;BMP_temperature;BMP_pressure;BME280_temperature;BME280_humidity;BME280_pressure;Samples;Min_cycle;Max_cycle;Signal;HPM_P1;HPM_P2
2022/10/18 00:03:43;;;;;;;35.87;22.30;;;;;;;14.53;94.93;101348.28;3558311;81;32592;-85
2022/10/18 00:08:44;;;;;;;35.80;23.70;;;;;;;14.46;94.99;101342.11;3551275;80;99258;-85
2022/10/18 00:13:44;;;;;;;36.80;24.13;;;;;;;14.41;94.81;101343.02;3538480;81;29648;-86
2022/10/18 00:18:47;;;;;;;35.93;21.70;;;;;;;14.36;94.81;101343.37;3533687;81;98824;-85
2022/10/18 00:23:50;;;;;;;34.03;21.05;;;;;;;14.30;94.96;101348.47;3530309;82;31610;-86
2022/10/18 00:28:59;;;;;;;31.97;22.25;;;;;;;14.24;95.02;101349.18;3527994;80;99081;-87
2022/10/18 00:34:05;;;;;;;31.75;20.55;;;;;;;14.22;95.11;101352.32;3546111;82;33012;-86
2022/10/18 00:39:09;;;;;;;33.78;21.65;;;;;;;14.19;95.14;101350.33;3531095;81;99281;-86
2022/10/18 00:44:16;;;;;;;31.73;20.80;;;;;;;14.19;95.09;101353.09;3519391;82;32493;-86
2022/10/18 00:49:20;;;;;;;;;;;;;;;14.11;94.86;101345.84;3514299;81;98940;-86
2022/10/18 00:54:22;;;;;;;34.35;21.20;;;;;;;14.06;95.69;101349.55;3542434;81;32454;-86
2022/10/18 00:59:25;;;;;;;39.18;24.18;;;;;;;14.00;94.89;101348.30;3520140;80;99231;-86
2022/10/18 01:04:26;;;;;;;37.70;23.32;;;;;;;13.96;94.96;101354.36;3521947;82;32525;-86
2022/10/18 01:09:47;;;;;;;35.73;22.77;;;;;;;13.90;95.22;101352.50;3519002;80;99076;-86
2022/10/18 01:15:12;;;;;;;33.60;21.27;;;;;;;13.85;94.98;101350.06;3558810;82;31571;-87
2022/10/18 01:20:44;;;;;;;31.63;21.17;;;;;;;13.73;94.94;101336.48;3549759;81;98873;-86
2022/10/18 01:26:28;;;;;;;33.53;22.05;;;;;;;13.66;94.84;101338.36;3500675;82;32433;-86
2022/10/18 01:31:38;;;;;;;33.48;22.37;;;;;;;13.64;95.09;101347.62;3568692;81;32422;-85
2022/10/18 01:36:47;;;;;;;33.28;21.45;;;;;;;13.58;95.39;101347.75;3586356;82;99122;-86
2022/10/18 01:41:51;;;;;;;33.60;21.23;;;;;;;13.55;95.43;101343.77;3557298;82;33036;-86
2022/10/18 01:46:55;;;;;;;31.75;21.45;;;;;;;13.45;95.37;101336.11;3556914;81;99131;-86
2022/10/18 01:51:56;;;;;;;32.83;20.30;;;;;;;13.42;95.09;101336.84;3575039;82;32507;-86
2022/10/18 01:57:34;;;;;;;35.47;20.90;;;;;;;13.37;95.44;101333.05;3564533;81;99182;-86
2022/10/18 02:02:58;;;;;;;34.45;21.48;;;;;;;13.31;95.43;101342.03;3567426;82;32418;-86
2022/10/18 02:08:28;;;;;;;38.40;23.77;;;;;;;13.26;95.64;101345.11;3578601;81;99303;-86
2022/10/18 02:13:35;;;;;;;33.73;21.15;;;;;;;13.21;95.75;101334.38;3561665;82;32130;-85
2022/10/18 02:18:58;;;;;;;;;;;;;;;13.20;95.88;101342.45;3546029;80;99394;-85
2022/10/18 02:24:01;;;;;;;37.05;23.50;;;;;;;13.15;96.37;101340.02;3550814;82;32456;-86
2022/10/18 02:29:02;;;;;;;41.23;25.77;;;;;;;13.01;95.74;101329.54;3553260;81;99022;-86
2022/10/18 02:34:26;;;;;;;48.43;26.80;;;;;;;13.07;95.91;101345.20;3567055;81;26557;-86
2022/10/18 02:39:37;;;;;;;44.27;26.10;;;;;;;13.05;96.01;101342.02;3569167;81;99034;-86
2022/10/18 02:44:39;;;;;;;40.15;23.70;;;;;;;13.03;95.96;101337.47;3565506;82;32447;-86
2022/10/18 02:49:39;;;;;;;41.68;24.10;;;;;;;12.99;95.93;101345.70;3500612;82;99302;-86
2022/10/18 02:54:40;;;;;;;40.07;23.70;;;;;;;12.92;95.85;101337.85;3559971;79;25875;-86
2022/10/18 02:59:41;;;;;;;37.40;23.87;;;;;;;12.91;95.90;101347.31;3564427;81;98922;-85
2022/10/18 03:04:42;;;;;;;36.63;23.33;;;;;;;12.88;95.99;101350.80;3567397;81;25961;-85
2022/10/18 03:09:42;;;;;;;36.17;22.43;;;;;;;12.83;95.92;101346.39;3546851;82;98657;-85
2022/10/18 03:14:43;;;;;;;36.07;22.90;;;;;;;12.81;96.05;101363.13;3551919;82;26486;-84
2022/10/18 03:19:44;;;;;;;37.00;22.73;;;;;;;12.78;96.01;101359.70;3539018;82;98932;-84
2022/10/18 03:24:45;;;;;;;35.33;22.23;;;;;;;12.75;96.12;101363.22;3562376;81;33854;-84
2022/10/18 03:29:45;;;;;;;40.13;24.17;;;;;;;12.72;96.15;101357.85;3557807;82;99011;-84
2022/10/18 03:34:46;;;;;;;36.40;22.77;;;;;;;12.68;96.08;101357.55;3558693;82;33791;-84
2022/10/18 03:39:47;;;;;;;33.53;23.00;;;;;;;12.65;96.35;101356.33;3556464;81;99023;-85
2022/10/18 03:44:48;;;;;;;34.77;22.50;;;;;;;12.64;96.36;101360.26;3561654;82;33801;-84
2022/10/18 03:49:48;;;;;;;33.90;22.20;;;;;;;12.63;96.51;101370.29;3558446;81;99011;-84
2022/10/18 03:54:49;;;;;;;33.00;21.82;;;;;;;12.62;96.39;101366.74;3564207;82;33964;-84
2022/10/18 03:59:50;;;;;;;34.08;22.22;;;;;;;12.61;96.60;101374.01;3544249;81;99065;-84
2022/10/18 04:04:51;;;;;;;35.43;22.27;;;;;;;12.59;96.78;101371.61;3556976;82;31702;-84
2022/10/18 04:09:52;;;;;;;37.57;24.17;;;;;;;12.38;96.73;101339.47;3533817;82;98718;-84
2022/10/18 04:14:53;;;;;;;33.30;23.40;;;;;;;12.57;96.89;101370.38;3555313;82;31567;-84
2022/10/18 04:19:53;;;;;;;37.00;23.87;;;;;;;12.60;97.00;101376.56;3492086;82;99248;-83
2022/10/18 04:24:55;;;;;;;35.73;22.63;;;;;;;12.60;97.05;101375.18;3579660;81;31628;-84
2022/10/18 04:29:56;;;;;;;37.23;23.73;;;;;;;12.59;97.15;101372.98;3536296;81;98684;-84
2022/10/18 04:34:57;;;;;;;37.20;23.10;;;;;;;12.60;97.28;101367.67;3574357;81;31704;-84
2022/10/18 04:39:58;;;;;;;35.08;23.22;;;;;;;12.59;97.47;101363.33;3566997;82;98739;-85
2022/10/18 04:44:59;;;;;;;36.77;24.03;;;;;;;12.59;97.63;101372.21;3568698;82;31743;-85
2022/10/18 04:50:00;;;;;;;37.80;24.98;;;;;;;12.60;97.70;101369.66;3559492;81;98991;-85
2022/10/18 04:55:00;;;;;;;36.93;24.13;;;;;;;12.60;97.78;101366.30;3541551;82;25829;-84
2022/10/18 05:00:02;;;;;;;32.90;21.97;;;;;;;12.61;97.82;101363.77;3567721;82;99061;-84
2022/10/18 05:05:04;;;;;;;37.40;23.87;;;;;;;12.61;97.87;101361.02;3574723;82;27120;-84
2022/10/18 05:10:05;;;;;;;35.50;22.63;;;;;;;12.64;97.81;101358.09;3548659;82;99100;-85
2022/10/18 05:15:07;;;;;;;36.08;22.55;;;;;;;12.63;97.99;101360.62;3568669;81;31637;-84
2022/10/18 05:20:09;;;;;;;36.08;23.12;;;;;;;12.65;98.06;101362.45;3547082;82;98945;-84
2022/10/18 05:25:09;;;;;;;34.08;21.40;;;;;;;12.65;98.06;101366.59;3565961;82;31660;-83
2022/10/18 05:30:11;;;;;;;34.07;22.03;;;;;;;12.66;98.04;101368.99;3503295;82;98842;-84
2022/10/18 05:35:12;;;;;;;34.87;22.20;;;;;;;12.69;98.20;101355.00;3580237;82;26502;-84
2022/10/18 05:40:12;;;;;;;35.43;21.30;;;;;;;12.71;98.21;101357.61;3568312;81;98937;-84
2022/10/18 05:45:13;;;;;;;38.33;23.93;;;;;;;12.75;98.09;101354.94;3574463;81;25868;-84
2022/10/18 05:50:14;;;;;;;33.60;21.33;;;;;;;12.77;98.24;101353.97;3576966;81;98840;-85
2022/10/18 05:55:15;;;;;;;33.73;21.07;;;;;;;12.79;98.22;101350.24;3579463;81;34769;-85
2022/10/18 06:00:17;;;;;;;30.07;21.93;;;;;;;12.82;98.18;101348.92;3560742;81;99018;-85
2022/10/18 06:05:19;;;;;;;32.67;21.90;;;;;;;12.86;98.32;101356.69;3550523;82;25821;-85
2022/10/18 06:10:20;;;;;;;37.43;24.03;;;;;;;12.91;98.27;101367.44;3544002;82;98683;-85
2022/10/18 06:15:21;;;;;;;35.90;23.63;;;;;;;12.95;98.30;101362.77;3571035;82;34852;-85
2022/10/18 06:20:22;;;;;;;35.28;23.35;;;;;;;13.01;98.33;101368.22;3577854;81;98752;-85
2022/10/18 06:25:22;;;;;;;32.20;21.97;;;;;;;13.08;98.60;101377.22;3575442;82;34899;-85
2022/10/18 06:30:23;;;;;;;46.42;26.75;;;;;;;13.12;98.87;101384.97;3566590;81;98998;-85
2022/10/18 06:35:24;;;;;;;38.80;25.23;;;;;;;13.20;99.44;101401.89;3596861;81;31038;-84
2022/10/18 06:40:25;;;;;;;45.53;27.97;;;;;;;13.32;100.00;101405.83;3605091;81;99370;-84
2022/10/18 06:45:25;;;;;;;43.68;30.45;;;;;;;13.42;100.00;101409.34;3607808;80;31519;-85
2022/10/18 06:50:26;;;;;;;49.10;31.17;;;;;;;13.55;100.00;101417.63;3591186;81;99128;-85
2022/10/18 06:55:27;;;;;;;41.93;28.10;;;;;;;13.67;100.00;101417.41;3606332;81;25961;-85
2022/10/18 07:00:28;;;;;;;44.87;30.03;;;;;;;13.79;100.00;101421.35;3588215;81;99197;-85
2022/10/18 07:05:30;;;;;;;48.90;31.73;;;;;;;13.91;100.00;101415.58;3615509;81;32420;-84
2022/10/18 07:10:31;;;;;;;42.70;29.03;;;;;;;14.05;100.00;101418.52;3612292;81;99148;-84
2022/10/18 07:15:32;;;;;;;46.30;30.70;;;;;;;14.20;100.00;101428.62;3607485;81;29617;-84
2022/10/18 07:20:33;;;;;;;43.00;29.23;;;;;;;14.35;100.00;101427.63;3594262;81;98799;-84
2022/10/18 07:25:35;;;;;;;42.20;27.53;;;;;;;14.50;100.00;101417.70;3594845;81;32455;-85
2022/10/18 07:30:36;;;;;;;43.40;28.43;;;;;;;14.66;100.00;101418.88;3601045;81;98954;-86
2022/10/18 07:35:36;;;;;;;42.17;27.37;;;;;;;14.82;100.00;101422.98;3564198;81;32668;-86
2022/10/18 07:40:37;;;;;;;38.43;26.03;;;;;;;14.98;100.00;101419.98;3553341;81;98970;-86
2022/10/18 07:45:38;;;;;;;39.07;25.10;;;;;;;15.13;100.00;101416.14;3573102;80;30605;-86
2022/10/18 07:50:39;;;;;;;36.07;25.40;;;;;;;15.26;100.00;101415.45;3565650;80;98921;-85
2022/10/18 07:55:39;;;;;;;33.35;23.18;;;;;;;15.39;100.00;101411.24;3573179;82;26722;-86
2022/10/18 08:00:40;;;;;;;38.13;22.40;;;;;;;15.49;100.00;101410.49;3567883;81;99197;-84
2022/10/18 08:05:41;;;;;;;32.13;21.52;;;;;;;15.58;100.00;101405.41;3567537;81;25900;-86
2022/10/18 08:10:42;;;;;;;31.30;21.57;;;;;;;15.68;100.00;101408.84;3566161;81;99167;-86
2022/10/18 08:15:43;;;;;;;27.50;19.40;;;;;;;15.75;100.00;101391.45;3568213;81;25848;-87
2022/10/18 08:20:45;;;;;;;31.47;19.60;;;;;;;15.86;100.00;101388.12;3557480;81;99152;-86
2022/10/18 08:25:45;;;;;;;25.88;18.95;;;;;;;15.95;100.00;101388.55;3580221;81;26048;-86
2022/10/18 08:30:46;;;;;;;28.07;18.90;;;;;;;16.04;100.00;101383.45;3566475;81;99130;-87
2022/10/18 08:35:55;;;;;;;28.83;19.63;;;;;;;16.11;100.00;101371.77;3556389;81;33329;-87
2022/10/18 08:41:01;;;;;;;27.67;18.55;;;;;;;16.19;100.00;101376.15;3562411;81;98953;-86
2022/10/18 08:46:02;;;;;;;26.75;18.55;;;;;;;16.27;100.00;101380.56;3564261;81;26508;-88
2022/10/18 08:51:06;;;;;;;25.70;18.07;;;;;;;16.27;100.00;101353.36;3554964;81;98667;-87
2022/10/18 08:56:15;;;;;;;24.50;16.90;;;;;;;16.27;100.00;101353.36;3553597;80;99303;-86
2022/10/18 09:01:33;;;;;;;27.20;17.77;;;;;;;16.43;100.00;101382.42;3556468;81;26778;-87
2022/10/18 09:06:45;;;;;;;27.67;17.90;;;;;;;16.48;100.00;101376.48;3544488;81;99169;-87
2022/10/18 09:12:33;;;;;;;36.00;17.65;;;;;;;16.51;100.00;101365.17;3560619;81;25939;-87
2022/10/18 09:18:00;;;;;;;30.10;17.92;;;;;;;16.56;100.00;101367.56;3537377;81;99211;-86
2022/10/18 09:23:15;;;;;;;24.00;16.42;;;;;;;16.59;100.00;101375.91;3546548;81;26606;-85
2022/10/18 09:28:40;;;;;;;26.23;16.80;;;;;;;16.63;100.00;101380.86;3552133;81;99342;-88
2022/10/18 09:33:49;;;;;;;24.63;18.23;;;;;;;16.65;100.00;101381.27;3580127;81;26422;-87
2022/10/18 09:38:58;;;;;;;30.12;19.98;;;;;;;16.65;100.00;101389.61;3599255;81;99561;-88
2022/10/18 09:44:20;;;;;;;28.92;20.15;;;;;;;16.64;100.00;101381.08;3595118;81;26074;-87
2022/10/18 09:49:32;;;;;;;27.75;19.35;;;;;;;16.63;100.00;101369.73;3592280;80;99268;-87
2022/10/18 09:55:01;;;;;;;29.70;19.52;;;;;;;16.62;100.00;101365.98;3591864;81;26841;-87
2022/10/18 10:00:07;;;;;;;31.97;20.50;;;;;;;16.60;100.00;101376.68;3507677;82;99470;-87
2022/10/18 10:05:14;;;;;;;;;;;;;;;16.58;100.00;101384.63;3588272;81;25781;-86
2022/10/18 10:10:25;;;;;;;32.67;19.60;;;;;;;16.56;100.00;101371.73;3597148;81;85246;-86
2022/10/18 10:15:29;;;;;;;29.13;19.10;;;;;;;16.51;100.00;101363.78;3608465;80;25975;-86
2022/10/18 10:20:48;;;;;;;28.50;20.00;;;;;;;16.50;100.00;101361.59;3597922;81;99671;-85
2022/10/18 10:26:00;;;;;;;29.42;19.50;;;;;;;16.48;100.00;101358.42;3596178;81;26057;-85
2022/10/18 10:31:35;;;;;;;27.20;19.67;;;;;;;16.46;100.00;101349.66;3597309;81;99018;-85
2022/10/18 10:36:47;;;;;;;24.20;17.25;;;;;;;16.46;100.00;101352.44;3577433;80;99025;-86
2022/10/18 10:41:55;;;;;;;25.32;16.87;;;;;;;16.45;100.00;101361.20;3574538;82;25982;-85
2022/10/18 10:46:57;;;;;;;25.15;16.30;;;;;;;16.46;100.00;101349.66;3576841;81;99173;-85
2022/10/18 10:52:01;;;;;;;23.62;16.82;;;;;;;16.46;100.00;101358.61;3586440;82;26264;-85
2022/10/18 10:57:15;;;;;;;20.83;13.90;;;;;;;16.45;100.00;101363.36;3576228;81;99473;-86
2022/10/18 11:02:27;;;;;;;23.15;15.90;;;;;;;16.44;100.00;101354.02;3579681;82;26104;-87
2022/10/18 11:07:35;;;;;;;21.07;13.10;;;;;;;16.39;100.00;101322.45;3578367;82;99082;-87
2022/10/18 11:12:45;;;;;;;18.53;12.70;;;;;;;16.35;100.00;101333.53;3583685;80;25905;-88
2022/10/18 11:18:25;;;;;;;19.40;12.07;;;;;;;16.32;100.00;101305.75;3578304;81;99449;-88
2022/10/18 11:23:30;;;;;;;16.65;9.78;;;;;;;16.27;100.00;101290.86;3587273;81;25821;-90
2022/10/18 11:29:05;;;;;;;14.33;9.23;;;;;;;16.22;100.00;101287.08;3584086;81;99234;-91
2022/10/18 11:34:17;;;;;;;13.67;8.13;;;;;;;16.16;100.00;101285.88;3571312;81;26517;-92
2022/10/18 11:39:32;;;;;;;13.13;8.03;;;;;;;16.09;100.00;101276.15;3561343;81;99273;-89
2022/10/18 11:45:06;;;;;;;15.63;9.38;;;;;;;16.04;100.00;101266.81;3571771;81;26578;-92
2022/10/18 11:50:36;;;;;;;13.13;7.90;;;;;;;15.99;100.00;101257.48;3559720;81;98936;-91
2022/10/18 11:55:51;;;;;;;14.83;8.03;;;;;;;15.96;100.00;101271.55;3554862;82;26716;-90
2022/10/18 12:01:04;;;;;;;14.18;7.87;;;;;;;15.96;100.00;101276.33;3552706;80;98696;-91
2022/10/18 12:06:19;;;;;;;13.50;8.23;;;;;;;15.95;100.00;101328.86;3558843;81;26407;-91
2022/10/18 12:11:28;;;;;;;14.05;7.78;;;;;;;15.93;100.00;101311.22;3561951;81;25807;-94
2022/10/18 12:16:36;;;;;;;14.60;8.47;;;;;;;15.97;100.00;101294.58;3562079;81;98077;-96
2022/10/18 12:21:38;;;;;;;16.27;10.48;;;;;;;16.00;100.00;101277.11;3542053;82;25889;-95
2022/10/18 12:26:39;;;;;;;10.10;6.00;;;;;;;16.03;100.00;101282.67;3569858;80;99480;-93
2022/10/18 12:31:53;;;;;;;8.37;4.27;;;;;;;16.07;100.00;101266.04;3573656;81;33473;-94
2022/10/18 12:37:08;;;;;;;8.13;3.70;;;;;;;16.08;100.00;101265.62;3564430;79;99055;-93
2022/10/18 12:42:25;;;;;;;8.95;4.65;;;;;;;16.09;100.00;101260.27;3572419;81;26763;-92
2022/10/18 12:47:28;;;;;;;8.85;4.53;;;;;;;16.09;100.00;101231.10;3540584;81;98684;-94
2022/10/18 12:52:35;;;;;;;8.10;4.10;;;;;;;16.10;100.00;101247.99;3567326;81;25849;-95
2022/10/18 12:58:00;;;;;;;8.40;3.98;;;;;;;16.11;100.00;101264.05;3552985;80;98842;-95
2022/10/18 13:03:13;;;;;;;8.85;4.40;;;;;;;16.09;100.00;101268.59;3566003;81;25780;-94
2022/10/18 13:08:38;;;;;;;7.75;4.08;;;;;;;16.06;100.00;101266.63;3551909;81;99178;-96
2022/10/18 13:14:13;;;;;;;12.07;6.28;;;;;;;16.03;100.00;101271.56;3474485;79;56649;-88
2022/10/18 13:19:29;;;;;;;14.13;7.72;;;;;;;16.05;100.00;101273.37;3337532;86;99236;-89
2022/10/18 13:25:04;;;;;;;14.07;7.73;;;;;;;16.03;100.00;101270.17;3350315;86;25863;-88
2022/10/18 13:30:19;;;;;;;16.42;8.45;;;;;;;16.03;100.00;101264.63;3328376;85;98871;-87
2022/10/18 13:35:54;;;;;;;12.78;8.08;;;;;;;16.03;100.00;101249.95;3363891;86;26483;-87
2022/10/18 13:41:11;;;;;;;11.48;7.15;;;;;;;16.01;100.00;101243.98;3327760;86;99263;-87
2022/10/18 13:46:12;;;;;;;14.18;8.15;;;;;;;15.97;100.00;101231.48;3346734;85;99313;-88
2022/10/18 13:51:31;;;;;;;13.20;8.70;;;;;;;15.96;100.00;101241.62;3338832;86;33270;-88
2022/10/18 13:56:45;;;;;;;17.60;11.00;;;;;;;15.94;100.00;101244.78;3339808;86;99226;-88
2022/10/18 14:01:57;;;;;;;21.42;14.13;;;;;;;15.93;100.00;101267.38;3353623;86;25915;-88
2022/10/18 14:07:01;;;;;;;26.67;15.60;;;;;;;15.90;100.00;101264.80;3333810;87;99460;-87
2022/10/18 14:12:40;;;;;;;18.25;12.73;;;;;;;15.87;100.00;101259.23;3343440;86;25957;-87
2022/10/18 14:18:08;;;;;;;21.62;15.55;;;;;;;15.83;100.00;101257.84;3310947;86;99413;-87
2022/10/18 14:23:31;;;;;;;23.00;17.37;;;;;;;15.82;100.00;101249.32;3337796;87;25882;-88
2022/10/18 14:28:32;;;;;;;23.80;16.87;;;;;;;15.79;100.00;101238.98;3333024;87;99728;-88
2022/10/18 14:33:47;;;;;;;24.13;16.00;;;;;;;15.73;100.00;101223.91;3340856;86;33445;-84
2022/10/18 14:39:04;;;;;;;22.10;13.23;;;;;;;15.75;100.00;101212.42;3323696;86;99002;-84
2022/10/18 14:44:28;;;;;;;18.73;11.85;;;;;;;15.72;100.00;101189.60;3341025;87;25972;-86
2022/10/18 14:49:29;;;;;;;18.70;13.27;;;;;;;15.66;100.00;101198.11;3355776;85;98911;-85
2022/10/18 14:54:36;;;;;;;17.82;12.25;;;;;;;15.59;100.00;101212.75;3365425;85;26021;-86
2022/10/18 14:59:50;;;;;;;18.47;13.27;;;;;;;15.58;100.00;101238.14;3337455;86;98849;-85
2022/10/18 15:05:11;;;;;;;17.30;12.10;;;;;;;15.56;100.00;101251.02;3340590;85;26721;-87
2022/10/18 15:10:20;;;;;;;18.43;11.63;;;;;;;15.56;100.00;101260.72;3302375;85;99510;-87
2022/10/18 15:15:28;;;;;;;17.97;11.43;;;;;;;15.57;100.00;101253.17;3340739;86;26283;-87
2022/10/18 15:20:41;;;;;;;17.70;11.68;;;;;;;15.54;100.00;101258.13;3342234;87;98894;-89
2022/10/18 15:25:42;;;;;;;17.47;11.57;;;;;;;15.51;100.00;101252.77;3351957;87;26474;-88
2022/10/18 15:30:43;;;;;;;15.23;10.57;;;;;;;15.48;100.00;101256.92;3345511;87;99336;-87
2022/10/18 15:35:44;;;;;;;17.20;9.53;;;;;;;15.46;100.00;101248.17;3356329;87;33208;-89
2022/10/18 15:40:45;;;;;;;16.83;10.07;;;;;;;15.42;100.00;101249.55;3342313;87;99033;-89
2022/10/18 15:45:46;;;;;;;15.60;9.40;;;;;;;15.40;100.00;101262.22;3350759;87;33205;-90
2022/10/18 15:50:59;;;;;;;14.27;8.57;;;;;;;15.36;100.00;101253.11;3333639;87;99112;-91
2022/10/18 15:56:14;;;;;;;13.63;8.10;;;;;;;15.32;100.00;101261.36;3345980;87;26400;-91
2022/10/18 16:01:19;;;;;;;16.93;9.25;;;;;;;15.28;100.00;101261.14;3347108;87;26272;-91
2022/10/18 16:06:20;;;;;;;13.37;8.70;;;;;;;15.26;100.00;101264.30;3340029;87;99291;-93
2022/10/18 16:11:24;;;;;;;14.53;8.07;;;;;;;15.18;100.00;101259.10;3343759;87;33855;-91
2022/10/18 16:16:27;;;;;;;13.43;7.05;;;;;;;15.12;100.00;101247.60;3337295;87;99385;-92
2022/10/18 16:21:33;;;;;;;13.05;8.13;;;;;;;15.09;100.00;101260.06;3350587;87;25950;-90
2022/10/18 16:26:35;;;;;;;13.22;8.75;;;;;;;15.01;100.00;101259.80;3341203;87;98804;-93
2022/10/18 16:31:36;;;;;;;18.50;10.60;;;;;;;14.94;100.00;101274.39;3343672;87;26575;-92
2022/10/18 16:36:36;;;;;;;18.10;11.33;;;;;;;14.89;100.00;101282.30;3344889;85;99035;-90
2022/10/18 16:41:37;;;;;;;19.60;11.63;;;;;;;14.85;100.00;101274.54;3348307;87;26167;-89
2022/10/18 16:46:39;;;;;;;19.97;10.97;;;;;;;14.80;100.00;101277.09;3346285;87;99050;-90
2022/10/18 16:51:40;;;;;;;18.10;10.37;;;;;;;14.75;100.00;101279.41;3337265;87;33869;-93
2022/10/18 16:56:41;;;;;;;18.57;13.20;;;;;;;14.70;100.00;101275.60;3340944;87;99064;-92
2022/10/18 17:01:47;;;;;;;19.90;15.17;;;;;;;14.64;100.00;101290.99;3354064;87;33272;-96
2022/10/18 17:06:48;;;;;;;16.67;10.00;;;;;;;14.60;100.00;101308.20;3344351;87;99470;-96
2022/10/18 17:11:49;;;;;;;16.48;10.45;;;;;;;14.53;100.00;101306.73;3327144;87;26516;-93
2022/10/18 17:16:59;;;;;;;15.20;9.47;;;;;;;14.44;100.00;101313.20;3329207;85;99114;-91
2022/10/18 17:22:00;;;;;;;13.45;8.68;;;;;;;14.38;100.00;101314.11;3343361;87;25928;-91
2022/10/18 17:27:01;;;;;;;19.07;9.97;;;;;;;14.32;100.00;101321.18;3335417;86;98943;-94
2022/10/18 17:32:02;;;;;;;14.70;9.13;;;;;;;14.24;100.00;101320.91;3276013;88;33287;-92
2022/10/18 17:37:04;;;;;;;13.43;8.20;;;;;;;14.10;100.00;101309.65;3286605;87;99071;-91
2022/10/18 17:42:04;;;;;;;17.67;9.13;;;;;;;14.06;100.00;101311.57;3295246;88;33208;-95
2022/10/18 17:47:06;;;;;;;14.30;9.83;;;;;;;13.97;100.00;101319.40;3323526;87;99221;-93
2022/10/18 17:52:07;;;;;;;16.60;9.70;;;;;;;13.90;100.00;101314.36;3333721;86;33254;-93
2022/10/18 17:57:08;;;;;;;18.30;11.73;;;;;;;13.83;100.00;101321.17;3317003;87;98938;-92
2022/10/18 18:02:10;;;;;;;19.33;12.00;;;;;;;13.80;100.00;101317.80;3332768;87;33336;-92
2022/10/18 18:07:13;;;;;;;19.87;12.00;;;;;;;13.79;100.00;101320.36;3328039;85;99359;-92
2022/10/18 18:12:14;;;;;;;18.20;10.10;;;;;;;13.76;100.00;101319.72;3327858;87;26409;-92
2022/10/18 18:17:15;;;;;;;17.90;10.93;;;;;;;13.76;100.00;101332.98;3311337;87;99197;-91
2022/10/18 18:22:16;;;;;;;17.27;11.83;;;;;;;13.75;100.00;101324.47;3357766;79;56563;-90
2022/10/18 18:27:16;;;;;;;15.87;10.40;;;;;;;13.70;100.00;101323.42;3477048;83;99439;-91
2022/10/18 18:32:17;;;;;;;20.57;10.43;;;;;;;13.65;100.00;101325.13;3486959;83;33820;-92
2022/10/18 18:37:18;;;;;;;16.83;9.43;;;;;;;13.61;100.00;101315.98;3473768;83;99612;-91
2022/10/18 18:42:21;;;;;;;20.07;12.03;;;;;;;13.58;100.00;101325.02;3479476;83;33683;-91
2022/10/18 18:47:22;;;;;;;21.93;12.73;;;;;;;13.49;100.00;101308.50;3478381;83;99621;-92
2022/10/18 18:52:22;;;;;;;17.70;10.83;;;;;;;13.46;100.00;101312.03;3489811;83;33824;-91
2022/10/18 18:57:23;;;;;;;17.20;10.87;;;;;;;13.43;100.00;101314.95;3471158;83;99156;-91
2022/10/18 19:02:24;;;;;;;16.33;10.63;;;;;;;13.41;100.00;101313.13;3483488;83;33765;-90
2022/10/18 19:07:25;;;;;;;14.95;9.95;;;;;;;13.27;100.00;101301.89;3484222;83;99099;-90
2022/10/18 19:12:26;;;;;;;15.70;11.30;;;;;;;13.36;100.00;101317.61;3480575;83;32427;-89
2022/10/18 19:17:26;;;;;;;18.10;11.07;;;;;;;13.32;100.00;101320.92;3471012;83;99050;-89
2022/10/18 19:22:27;;;;;;;15.47;10.00;;;;;;;13.24;100.00;101328.89;3475841;83;32556;-89
2022/10/18 19:27:28;;;;;;;18.20;9.93;;;;;;;13.16;100.00;101320.88;3450473;83;99679;-89
2022/10/18 19:32:29;;;;;;;22.00;11.37;;;;;;;13.09;100.00;101334.59;3453809;84;31740;-89
2022/10/18 19:37:30;;;;;;;17.80;11.00;;;;;;;13.00;100.00;101327.95;3449325;83;99312;-89
2022/10/18 19:42:31;;;;;;;17.40;11.87;;;;;;;12.92;100.00;101332.33;3459585;84;31559;-89
2022/10/18 19:47:32;;;;;;;15.98;10.84;;;;;;;12.82;100.00;101327.42;3448309;83;99311;-88
2022/10/18 19:52:32;;;;;;;18.67;11.77;;;;;;;12.76;100.00;101339.35;3450138;84;26574;-88
2022/10/18 19:57:33;;;;;;;15.70;11.13;;;;;;;12.67;100.00;101347.11;3454237;84;99341;-88
2022/10/18 20:02:34;;;;;;;15.97;10.73;;;;;;;12.60;100.00;101348.95;3461260;84;25791;-88
2022/10/18 20:07:35;;;;;;;18.37;11.67;;;;;;;12.54;100.00;101352.58;3460025;83;99342;-90
2022/10/18 20:12:36;;;;;;;16.07;10.50;;;;;;;12.47;100.00;101361.31;3462493;84;34904;-87
2022/10/18 20:17:37;;;;;;;18.33;11.33;;;;;;;12.43;100.00;101359.88;3454767;82;99787;-89
2022/10/18 20:22:38;;;;;;;19.50;12.53;;;;;;;12.43;100.00;101361.86;3460361;84;34854;-89
2022/10/18 20:27:38;;;;;;;19.27;12.60;;;;;;;12.41;100.00;101362.22;3454423;82;99446;-89
2022/10/18 20:32:40;;;;;;;19.10;13.45;;;;;;;12.38;100.00;101366.30;3454538;84;34857;-88
2022/10/18 20:37:41;;;;;;;19.77;12.65;;;;;;;12.36;100.00;101358.94;3443130;84;99154;-88
2022/10/18 20:42:42;;;;;;;21.37;14.00;;;;;;;12.33;100.00;101367.97;3451719;84;28108;-89
2022/10/18 20:47:42;;;;;;;19.93;12.77;;;;;;;12.32;100.00;101365.00;3455309;84;99398;-88
2022/10/18 20:52:49;;;;;;;21.07;12.63;;;;;;;12.28;100.00;101366.89;3454274;84;25840;-88
2022/10/18 20:57:46;;;;;;;25.80;13.70;;;;;;;12.24;100.00;101368.78;3452064;83;99042;-88
2022/10/18 21:02:46;;;;;;;19.97;13.27;;;;;;;12.18;100.00;101371.62;3461993;84;26837;-88
2022/10/18 21:07:47;;;;;;;20.33;13.40;;;;;;;12.12;100.00;101379.98;3455654;84;99590;-85
2022/10/18 21:12:48;;;;;;;21.70;14.33;;;;;;;12.05;100.00;101379.25;3461512;84;26553;-85
2022/10/18 21:17:57;;;;;;;20.83;13.23;;;;;;;11.96;100.00;101377.88;3454226;83;99343;-85
2022/10/18 21:22:58;;;;;;;23.30;13.08;;;;;;;11.88;100.00;101368.66;3460678;84;33925;-85
2022/10/18 21:27:59;;;;;;;23.93;13.50;;;;;;;11.75;100.00;101367.77;3456101;83;99558;-85
2022/10/18 21:32:59;;;;;;;19.87;12.87;;;;;;;11.72;100.00;101365.16;3465610;84;25877;-85
2022/10/18 21:38:00;;;;;;;19.73;12.17;;;;;;;11.66;100.00;101365.23;3454910;84;99273;-85
2022/10/18 21:43:01;;;;;;;18.23;12.10;;;;;;;11.62;100.00;101350.56;3462255;84;25826;-86
2022/10/18 21:48:03;;;;;;;15.93;10.50;;;;;;;11.56;100.00;101349.22;3451676;84;99478;-85
2022/10/18 21:53:04;;;;;;;22.23;13.30;;;;;;;11.54;100.00;101345.22;3448135;84;32480;-86
2022/10/18 21:58:05;;;;;;;17.73;10.70;;;;;;;11.49;100.00;101342.18;3448493;84;99445;-85
2022/10/18 22:03:11;;;;;;;17.00;10.57;;;;;;;11.45;100.00;101335.00;3463955;84;32450;-85
2022/10/18 22:08:12;;;;;;;17.05;10.78;;;;;;;11.41;100.00;101325.84;3442541;84;99052;-85
2022/10/18 22:13:13;;;;;;;16.30;10.47;;;;;;;11.37;100.00;101322.20;3448404;84;27166;-84
2022/10/18 22:18:14;;;;;;;16.60;10.17;;;;;;;11.33;100.00;101311.11;3453628;82;99020;-85
2022/10/18 22:23:15;;;;;;;18.37;10.67;;;;;;;11.28;100.00;101310.02;3433906;84;25987;-85
2022/10/18 22:28:16;;;;;;;16.07;10.20;;;;;;;11.23;100.00;101308.13;3459630;83;99406;-85
2022/10/18 22:33:17;;;;;;;15.00;10.07;;;;;;;11.17;100.00;101294.42;3454123;83;33222;-85
2022/10/18 22:38:17;;;;;;;16.53;9.80;;;;;;;11.07;100.00;101285.33;3458726;83;99316;-85
2022/10/18 22:43:18;;;;;;;16.63;10.10;;;;;;;11.00;100.00;101279.64;3476072;83;32971;-85
2022/10/18 22:48:19;;;;;;;17.55;10.32;;;;;;;10.96;100.00;101278.78;3459185;83;99557;-85
2022/10/18 22:53:20;;;;;;;21.17;11.83;;;;;;;10.90;100.00;101275.49;3479043;83;27475;-85
2022/10/18 22:58:21;;;;;;;21.27;12.53;;;;;;;10.84;100.00;101272.80;3488434;83;99580;-85
2022/10/18 23:03:22;;;;;;;25.93;13.03;;;;;;;10.76;100.00;101270.23;3486485;83;26452;-84
2022/10/18 23:08:23;;;;;;;25.00;13.17;;;;;;;10.72;100.00;101266.59;3475220;83;99435;-85